Southern, Louisiana
Current Conditions -  °F | °C
As of 9:53 AM on Thursday 18 Dec 2014 (Local Time) from KBTR Reporting Station
Overcast Overcast  
Wind Chill: 59°   Ceiling: 7000
Heat Index: 59°   Visibility: 10mi
Dew Point: 47°   Wind: 8mph
Humidity: 64%   Direction: 100°E
Pressure: 30.17"   Gusts: NA
Location:  30.5234°N, 91.1905°W
Report Text: KBTR 181553Z 10007KT 10SM FEW045 OVC070 15/08 A3017 RMK AO2 SLP216 T01500083
Loading
Personal Weather Stations






























Interactive Weather Map New forecast layout! Learn more

10-Day Weather Forecast

Advertisements
Track Severe Weather on mobile